sensor_id;sensor_type;location;lat;lon;timestamp;P1;durP1;ratioP1;P2;durP2;ratioP2
75021;SDS011;63583;49.976;20.182;2023-09-08T00:02:22;15.25;;;10.23;;
75021;SDS011;63583;49.976;20.182;2023-09-08T00:04:51;14.95;;;10.48;;
75021;SDS011;63583;49.976;20.182;2023-09-08T00:07:17;14.57;;;9.57;;
75021;SDS011;63583;49.976;20.182;2023-09-08T00:09:43;15.82;;;9.55;;
75021;SDS011;63583;49.976;20.182;2023-09-08T00:12:09;15.68;;;10.27;;
75021;SDS011;63583;49.976;20.182;2023-09-08T00:14:35;16.00;;;9.77;;
75021;SDS011;63583;49.976;20.182;2023-09-08T00:17:00;13.07;;;9.30;;
75021;SDS011;63583;49.976;20.182;2023-09-08T00:19:26;16.52;;;10.48;;
75021;SDS011;63583;49.976;20.182;2023-09-08T00:21:52;15.05;;;10.02;;
75021;SDS011;63583;49.976;20.182;2023-09-08T00:24:18;13.73;;;9.90;;
75021;SDS011;63583;49.976;20.182;2023-09-08T00:26:44;13.60;;;9.15;;
75021;SDS011;63583;49.976;20.182;2023-09-08T00:29:10;14.52;;;8.75;;
75021;SDS011;63583;49.976;20.182;2023-09-08T00:31:35;12.77;;;8.95;;
75021;SDS011;63583;49.976;20.182;2023-09-08T00:34:01;13.15;;;9.32;;
75021;SDS011;63583;49.976;20.182;2023-09-08T00:36:27;15.60;;;9.40;;
75021;SDS011;63583;49.976;20.182;2023-09-08T00:38:52;13.48;;;9.38;;
75021;SDS011;63583;49.976;20.182;2023-09-08T00:41:18;12.60;;;8.68;;
75021;SDS011;63583;49.976;20.182;2023-09-08T00:43:44;16.73;;;9.48;;
75021;SDS011;63583;49.976;20.182;2023-09-08T00:46:10;15.02;;;9.20;;
75021;SDS011;63583;49.976;20.182;2023-09-08T00:48:36;14.27;;;9.45;;
75021;SDS011;63583;49.976;20.182;2023-09-08T00:51:03;13.60;;;9.93;;
75021;SDS011;63583;49.976;20.182;2023-09-08T00:53:30;14.50;;;9.23;;
75021;SDS011;63583;49.976;20.182;2023-09-08T00:55:56;16.60;;;9.88;;
75021;SDS011;63583;49.976;20.182;2023-09-08T00:58:24;15.48;;;9.57;;
75021;SDS011;63583;49.976;20.182;2023-09-08T01:00:50;14.35;;;9.23;;
75021;SDS011;63583;49.976;20.182;2023-09-08T01:03:16;13.82;;;8.88;;
75021;SDS011;63583;49.976;20.182;2023-09-08T01:05:42;14.55;;;9.80;;
75021;SDS011;63583;49.976;20.182;2023-09-08T01:08:08;15.65;;;9.85;;
75021;SDS011;63583;49.976;20.182;2023-09-08T01:10:35;15.70;;;10.02;;
75021;SDS011;63583;49.976;20.182;2023-09-08T01:13:02;14.73;;;9.73;;
75021;SDS011;63583;49.976;20.182;2023-09-08T01:15:28;13.75;;;9.95;;
75021;SDS011;63583;49.976;20.182;2023-09-08T01:17:54;15.32;;;10.43;;
75021;SDS011;63583;49.976;20.182;2023-09-08T01:20:24;16.80;;;11.57;;
75021;SDS011;63583;49.976;20.182;2023-09-08T01:25:40;18.23;;;10.88;;
75021;SDS011;63583;49.976;20.182;2023-09-08T01:28:15;15.85;;;10.90;;
75021;SDS011;63583;49.976;20.182;2023-09-08T01:30:43;17.65;;;11.07;;
75021;SDS011;63583;49.976;20.182;2023-09-08T01:33:08;18.48;;;12.05;;
75021;SDS011;63583;49.976;20.182;2023-09-08T01:35:35;17.17;;;11.50;;
75021;SDS011;63583;49.976;20.182;2023-09-08T01:38:01;15.98;;;12.25;;
75021;SDS011;63583;49.976;20.182;2023-09-08T01:40:27;18.08;;;11.52;;
75021;SDS011;63583;49.976;20.182;2023-09-08T01:42:53;16.08;;;11.75;;
75021;SDS011;63583;49.976;20.182;2023-09-08T01:45:18;15.90;;;10.75;;
75021;SDS011;63583;49.976;20.182;2023-09-08T01:47:44;17.25;;;11.45;;
75021;SDS011;63583;49.976;20.182;2023-09-08T01:50:10;18.55;;;12.07;;
75021;SDS011;63583;49.976;20.182;2023-09-08T01:52:36;19.60;;;12.23;;
75021;SDS011;63583;49.976;20.182;2023-09-08T01:55:02;16.00;;;11.20;;
75021;SDS011;63583;49.976;20.182;2023-09-08T01:57:28;17.35;;;11.45;;
75021;SDS011;63583;49.976;20.182;2023-09-08T01:59:53;17.33;;;11.13;;
75021;SDS011;63583;49.976;20.182;2023-09-08T02:02:19;16.67;;;11.13;;
75021;SDS011;63583;49.976;20.182;2023-09-08T02:04:45;16.45;;;10.70;;
75021;SDS011;63583;49.976;20.182;2023-09-08T02:07:11;17.08;;;11.60;;
75021;SDS011;63583;49.976;20.182;2023-09-08T02:09:37;17.63;;;11.20;;
75021;SDS011;63583;49.976;20.182;2023-09-08T02:12:03;16.20;;;11.30;;
75021;SDS011;63583;49.976;20.182;2023-09-08T02:14:29;18.13;;;12.00;;
75021;SDS011;63583;49.976;20.182;2023-09-08T02:16:56;17.70;;;11.50;;
75021;SDS011;63583;49.976;20.182;2023-09-08T02:19:22;16.35;;;11.25;;
75021;SDS011;63583;49.976;20.182;2023-09-08T02:21:48;18.42;;;11.38;;
75021;SDS011;63583;49.976;20.182;2023-09-08T02:24:14;16.33;;;11.35;;
75021;SDS011;63583;49.976;20.182;2023-09-08T02:26:40;16.20;;;11.93;;
75021;SDS011;63583;49.976;20.182;2023-09-08T02:29:06;17.52;;;12.27;;
75021;SDS011;63583;49.976;20.182;2023-09-08T02:31:33;17.85;;;11.93;;
75021;SDS011;63583;49.976;20.182;2023-09-08T02:33:59;18.20;;;12.13;;
75021;SDS011;63583;49.976;20.182;2023-09-08T02:36:25;20.10;;;12.77;;
75021;SDS011;63583;49.976;20.182;2023-09-08T02:38:54;17.02;;;11.70;;
75021;SDS011;63583;49.976;20.182;2023-09-08T02:41:21;17.73;;;11.75;;
75021;SDS011;63583;49.976;20.182;2023-09-08T02:43:47;17.70;;;11.73;;
75021;SDS011;63583;49.976;20.182;2023-09-08T02:46:13;21.40;;;12.43;;
75021;SDS011;63583;49.976;20.182;2023-09-08T02:48:39;19.15;;;12.15;;
75021;SDS011;63583;49.976;20.182;2023-09-08T02:51:05;18.20;;;11.38;;
75021;SDS011;63583;49.976;20.182;2023-09-08T02:53:31;20.70;;;12.60;;
75021;SDS011;63583;49.976;20.182;2023-09-08T02:55:57;19.88;;;12.65;;
75021;SDS011;63583;49.976;20.182;2023-09-08T02:58:23;19.80;;;12.85;;
75021;SDS011;63583;49.976;20.182;2023-09-08T03:00:49;20.13;;;13.10;;
75021;SDS011;63583;49.976;20.182;2023-09-08T03:03:20;18.83;;;12.55;;
75021;SDS011;63583;49.976;20.182;2023-09-08T03:05:46;19.38;;;13.27;;
75021;SDS011;63583;49.976;20.182;2023-09-08T03:08:11;22.75;;;14.00;;
75021;SDS011;63583;49.976;20.182;2023-09-08T03:10:37;20.42;;;13.10;;
75021;SDS011;63583;49.976;20.182;2023-09-08T03:13:04;19.45;;;14.32;;
75021;SDS011;63583;49.976;20.182;2023-09-08T03:15:30;20.00;;;13.40;;
75021;SDS011;63583;49.976;20.182;2023-09-08T03:17:56;20.17;;;13.73;;
75021;SDS011;63583;49.976;20.182;2023-09-08T03:20:24;18.45;;;12.90;;
75021;SDS011;63583;49.976;20.182;2023-09-08T03:22:53;19.75;;;14.27;;
75021;SDS011;63583;49.976;20.182;2023-09-08T03:25:20;19.17;;;13.32;;
75021;SDS011;63583;49.976;20.182;2023-09-08T03:27:46;21.00;;;13.57;;
75021;SDS011;63583;49.976;20.182;2023-09-08T03:30:12;21.88;;;13.85;;
75021;SDS011;63583;49.976;20.182;2023-09-08T03:32:38;21.80;;;13.80;;
75021;SDS011;63583;49.976;20.182;2023-09-08T03:35:04;21.00;;;13.50;;
75021;SDS011;63583;49.976;20.182;2023-09-08T03:37:33;20.63;;;13.75;;
75021;SDS011;63583;49.976;20.182;2023-09-08T03:40:00;18.23;;;12.05;;
75021;SDS011;63583;49.976;20.182;2023-09-08T03:42:26;18.52;;;12.32;;
75021;SDS011;63583;49.976;20.182;2023-09-08T03:44:52;18.67;;;12.55;;
75021;SDS011;63583;49.976;20.182;2023-09-08T03:47:17;19.27;;;13.27;;
75021;SDS011;63583;49.976;20.182;2023-09-08T03:49:43;22.52;;;13.70;;
75021;SDS011;63583;49.976;20.182;2023-09-08T03:52:08;19.67;;;13.23;;
75021;SDS011;63583;49.976;20.182;2023-09-08T03:54:34;17.73;;;12.43;;
75021;SDS011;63583;49.976;20.182;2023-09-08T03:57:00;20.63;;;13.30;;
75021;SDS011;63583;49.976;20.182;2023-09-08T03:59:26;17.60;;;12.23;;
75021;SDS011;63583;49.976;20.182;2023-09-08T04:01:51;17.80;;;12.23;;
75021;SDS011;63583;49.976;20.182;2023-09-08T04:04:17;22.17;;;13.35;;
75021;SDS011;63583;49.976;20.182;2023-09-08T04:06:45;18.55;;;12.43;;
75021;SDS011;63583;49.976;20.182;2023-09-08T04:09:11;18.77;;;12.45;;
75021;SDS011;63583;49.976;20.182;2023-09-08T04:11:36;18.75;;;12.52;;
75021;SDS011;63583;49.976;20.182;2023-09-08T04:14:02;18.27;;;12.55;;
75021;SDS011;63583;49.976;20.182;2023-09-08T04:16:28;20.67;;;13.23;;
75021;SDS011;63583;49.976;20.182;2023-09-08T04:18:54;17.33;;;12.52;;
75021;SDS011;63583;49.976;20.182;2023-09-08T04:21:20;19.92;;;12.52;;
75021;SDS011;63583;49.976;20.182;2023-09-08T04:23:46;17.27;;;12.15;;
75021;SDS011;63583;49.976;20.182;2023-09-08T04:26:12;17.60;;;12.27;;
75021;SDS011;63583;49.976;20.182;2023-09-08T04:28:38;19.63;;;13.13;;
75021;SDS011;63583;49.976;20.182;2023-09-08T04:31:04;18.83;;;13.20;;
75021;SDS011;63583;49.976;20.182;2023-09-08T04:33:30;22.60;;;12.98;;
75021;SDS011;63583;49.976;20.182;2023-09-08T04:35:56;19.50;;;12.63;;
75021;SDS011;63583;49.976;20.182;2023-09-08T04:38:22;18.98;;;12.60;;
75021;SDS011;63583;49.976;20.182;2023-09-08T04:40:47;18.73;;;12.25;;
75021;SDS011;63583;49.976;20.182;2023-09-08T04:43:13;17.70;;;12.00;;
75021;SDS011;63583;49.976;20.182;2023-09-08T04:45:40;19.23;;;12.77;;
75021;SDS011;63583;49.976;20.182;2023-09-08T04:48:05;15.95;;;11.15;;
75021;SDS011;63583;49.976;20.182;2023-09-08T04:50:31;19.15;;;12.23;;
75021;SDS011;63583;49.976;20.182;2023-09-08T04:52:58;19.33;;;12.65;;
75021;SDS011;63583;49.976;20.182;2023-09-08T04:55:23;18.75;;;12.30;;
75021;SDS011;63583;49.976;20.182;2023-09-08T04:57:49;18.50;;;12.20;;
75021;SDS011;63583;49.976;20.182;2023-09-08T05:00:15;18.58;;;11.57;;
75021;SDS011;63583;49.976;20.182;2023-09-08T05:02:41;15.80;;;10.98;;
75021;SDS011;63583;49.976;20.182;2023-09-08T05:05:07;16.92;;;11.68;;
75021;SDS011;63583;49.976;20.182;2023-09-08T05:07:33;17.73;;;11.60;;
75021;SDS011;63583;49.976;20.182;2023-09-08T05:09:59;18.83;;;11.73;;
75021;SDS011;63583;49.976;20.182;2023-09-08T05:12:24;16.17;;;11.05;;
75021;SDS011;63583;49.976;20.182;2023-09-08T05:14:50;18.42;;;12.63;;
75021;SDS011;63583;49.976;20.182;2023-09-08T05:17:22;15.90;;;9.75;;
75021;SDS011;63583;49.976;20.182;2023-09-08T05:19:48;15.93;;;10.07;;
75021;SDS011;63583;49.976;20.182;2023-09-08T05:22:14;14.38;;;10.85;;
75021;SDS011;63583;49.976;20.182;2023-09-08T05:24:40;14.70;;;10.98;;
75021;SDS011;63583;49.976;20.182;2023-09-08T05:27:06;15.52;;;11.35;;
75021;SDS011;63583;49.976;20.182;2023-09-08T05:29:31;16.30;;;11.05;;
75021;SDS011;63583;49.976;20.182;2023-09-08T05:31:57;19.85;;;12.05;;
75021;SDS011;63583;49.976;20.182;2023-09-08T05:34:23;14.30;;;11.02;;
75021;SDS011;63583;49.976;20.182;2023-09-08T05:36:49;15.73;;;11.68;;
75021;SDS011;63583;49.976;20.182;2023-09-08T05:39:15;18.35;;;12.60;;
75021;SDS011;63583;49.976;20.182;2023-09-08T05:41:41;16.65;;;12.05;;
75021;SDS011;63583;49.976;20.182;2023-09-08T05:44:07;17.33;;;12.00;;
75021;SDS011;63583;49.976;20.182;2023-09-08T05:46:33;16.63;;;11.80;;
75021;SDS011;63583;49.976;20.182;2023-09-08T05:48:59;18.58;;;12.70;;
75021;SDS011;63583;49.976;20.182;2023-09-08T05:51:24;18.73;;;12.60;;
75021;SDS011;63583;49.976;20.182;2023-09-08T05:53:50;19.23;;;12.55;;
75021;SDS011;63583;49.976;20.182;2023-09-08T05:56:17;19.00;;;12.68;;
75021;SDS011;63583;49.976;20.182;2023-09-08T05:58:44;18.67;;;13.18;;
75021;SDS011;63583;49.976;20.182;2023-09-08T06:01:09;18.42;;;13.68;;
75021;SDS011;63583;49.976;20.182;2023-09-08T06:03:35;15.82;;;13.10;;
75021;SDS011;63583;49.976;20.182;2023-09-08T06:06:01;16.85;;;12.98;;
75021;SDS011;63583;49.976;20.182;2023-09-08T06:08:27;19.30;;;12.85;;
75021;SDS011;63583;49.976;20.182;2023-09-08T06:10:53;16.30;;;12.45;;
75021;SDS011;63583;49.976;20.182;2023-09-08T06:13:18;18.45;;;12.80;;
75021;SDS011;63583;49.976;20.182;2023-09-08T06:15:44;15.60;;;11.50;;
75021;SDS011;63583;49.976;20.182;2023-09-08T06:18:10;17.60;;;12.02;;
75021;SDS011;63583;49.976;20.182;2023-09-08T06:20:43;16.95;;;11.63;;
75021;SDS011;63583;49.976;20.182;2023-09-08T06:23:09;16.48;;;11.77;;
75021;SDS011;63583;49.976;20.182;2023-09-08T06:25:35;16.85;;;11.38;;
75021;SDS011;63583;49.976;20.182;2023-09-08T06:28:00;17.67;;;11.98;;
75021;SDS011;63583;49.976;20.182;2023-09-08T06:30:26;19.42;;;12.85;;
75021;SDS011;63583;49.976;20.182;2023-09-08T06:32:52;18.65;;;13.18;;
75021;SDS011;63583;49.976;20.182;2023-09-08T06:35:18;17.52;;;13.35;;
75021;SDS011;63583;49.976;20.182;2023-09-08T06:37:43;18.60;;;12.85;;
75021;SDS011;63583;49.976;20.182;2023-09-08T06:40:09;16.70;;;12.55;;
75021;SDS011;63583;49.976;20.182;2023-09-08T06:42:35;15.25;;;11.27;;
75021;SDS011;63583;49.976;20.182;2023-09-08T06:45:01;16.77;;;11.27;;
75021;SDS011;63583;49.976;20.182;2023-09-08T06:47:26;20.25;;;12.27;;
75021;SDS011;63583;49.976;20.182;2023-09-08T06:49:52;18.33;;;12.23;;
75021;SDS011;63583;49.976;20.182;2023-09-08T06:52:18;17.40;;;11.57;;
75021;SDS011;63583;49.976;20.182;2023-09-08T06:54:44;17.77;;;10.40;;
75021;SDS011;63583;49.976;20.182;2023-09-08T06:57:12;14.85;;;10.45;;
75021;SDS011;63583;49.976;20.182;2023-09-08T06:59:39;15.05;;;10.48;;
75021;SDS011;63583;49.976;20.182;2023-09-08T07:02:05;12.93;;;10.00;;
75021;SDS011;63583;49.976;20.182;2023-09-08T07:04:32;14.48;;;10.73;;
75021;SDS011;63583;49.976;20.182;2023-09-08T07:06:58;16.58;;;10.95;;
75021;SDS011;63583;49.976;20.182;2023-09-08T07:09:35;16.75;;;10.45;;
75021;SDS011;63583;49.976;20.182;2023-09-08T07:12:05;13.60;;;9.35;;
75021;SDS011;63583;49.976;20.182;2023-09-08T07:14:31;15.95;;;10.23;;
75021;SDS011;63583;49.976;20.182;2023-09-08T07:16:57;13.23;;;9.90;;
75021;SDS011;63583;49.976;20.182;2023-09-08T07:19:23;15.15;;;9.57;;
75021;SDS011;63583;49.976;20.182;2023-09-08T07:21:50;15.98;;;8.95;;
75021;SDS011;63583;49.976;20.182;2023-09-08T07:24:16;13.45;;;9.20;;
75021;SDS011;63583;49.976;20.182;2023-09-08T07:26:41;12.63;;;9.48;;
75021;SDS011;63583;49.976;20.182;2023-09-08T07:29:07;13.05;;;9.18;;
75021;SDS011;63583;49.976;20.182;2023-09-08T07:31:33;13.25;;;9.75;;
75021;SDS011;63583;49.976;20.182;2023-09-08T07:33:59;13.90;;;9.73;;
75021;SDS011;63583;49.976;20.182;2023-09-08T07:36:24;12.00;;;9.35;;
75021;SDS011;63583;49.976;20.182;2023-09-08T07:38:50;13.98;;;10.07;;
75021;SDS011;63583;49.976;20.182;2023-09-08T07:41:16;12.43;;;10.02;;
75021;SDS011;63583;49.976;20.182;2023-09-08T07:43:42;13.40;;;9.95;;
75021;SDS011;63583;49.976;20.182;2023-09-08T07:46:09;16.27;;;11.15;;
75021;SDS011;63583;49.976;20.182;2023-09-08T07:48:35;15.02;;;10.57;;
75021;SDS011;63583;49.976;20.182;2023-09-08T07:51:01;14.70;;;10.80;;
75021;SDS011;63583;49.976;20.182;2023-09-08T07:53:27;15.40;;;10.93;;
75021;SDS011;63583;49.976;20.182;2023-09-08T07:55:53;16.42;;;11.38;;
75021;SDS011;63583;49.976;20.182;2023-09-08T07:58:19;14.98;;;10.40;;
75021;SDS011;63583;49.976;20.182;2023-09-08T08:00:44;13.57;;;10.25;;
75021;SDS011;63583;49.976;20.182;2023-09-08T08:03:10;15.52;;;9.85;;
75021;SDS011;63583;49.976;20.182;2023-09-08T08:05:36;16.00;;;10.52;;
75021;SDS011;63583;49.976;20.182;2023-09-08T08:08:02;14.80;;;11.05;;
75021;SDS011;63583;49.976;20.182;2023-09-08T08:10:28;14.60;;;10.20;;
75021;SDS011;63583;49.976;20.182;2023-09-08T08:12:54;13.48;;;10.25;;
75021;SDS011;63583;49.976;20.182;2023-09-08T08:15:19;13.55;;;9.90;;
75021;SDS011;63583;49.976;20.182;2023-09-08T08:17:49;14.73;;;9.95;;
75021;SDS011;63583;49.976;20.182;2023-09-08T08:20:14;15.27;;;9.70;;
75021;SDS011;63583;49.976;20.182;2023-09-08T08:22:43;14.50;;;10.07;;
75021;SDS011;63583;49.976;20.182;2023-09-08T08:25:13;12.27;;;9.45;;
75021;SDS011;63583;49.976;20.182;2023-09-08T08:27:39;14.35;;;9.32;;
75021;SDS011;63583;49.976;20.182;2023-09-08T08:30:05;15.38;;;9.85;;
75021;SDS011;63583;49.976;20.182;2023-09-08T08:32:33;12.20;;;9.75;;
75021;SDS011;63583;49.976;20.182;2023-09-08T08:34:59;13.57;;;9.40;;
75021;SDS011;63583;49.976;20.182;2023-09-08T08:37:25;12.90;;;9.20;;
75021;SDS011;63583;49.976;20.182;2023-09-08T08:39:50;12.27;;;9.05;;
75021;SDS011;63583;49.976;20.182;2023-09-08T08:42:16;12.35;;;8.93;;
75021;SDS011;63583;49.976;20.182;2023-09-08T08:44:42;10.48;;;8.63;;
75021;SDS011;63583;49.976;20.182;2023-09-08T08:47:10;12.77;;;9.18;;
75021;SDS011;63583;49.976;20.182;2023-09-08T08:49:37;12.57;;;9.13;;
75021;SDS011;63583;49.976;20.182;2023-09-08T08:52:07;12.77;;;9.00;;
75021;SDS011;63583;49.976;20.182;2023-09-08T08:54:34;13.80;;;8.82;;
75021;SDS011;63583;49.976;20.182;2023-09-08T08:57:05;11.30;;;9.10;;
75021;SDS011;63583;49.976;20.182;2023-09-08T08:59:32;12.23;;;9.30;;
75021;SDS011;63583;49.976;20.182;2023-09-08T09:01:58;12.45;;;9.20;;
75021;SDS011;63583;49.976;20.182;2023-09-08T09:04:25;11.80;;;8.43;;
75021;SDS011;63583;49.976;20.182;2023-09-08T09:06:52;12.23;;;8.63;;
75021;SDS011;63583;49.976;20.182;2023-09-08T09:09:18;11.85;;;8.93;;
75021;SDS011;63583;49.976;20.182;2023-09-08T09:11:45;13.38;;;9.05;;
75021;SDS011;63583;49.976;20.182;2023-09-08T09:14:10;12.27;;;8.38;;
75021;SDS011;63583;49.976;20.182;2023-09-08T09:16:43;12.18;;;8.93;;
75021;SDS011;63583;49.976;20.182;2023-09-08T09:19:10;13.55;;;9.13;;
75021;SDS011;63583;49.976;20.182;2023-09-08T09:21:51;11.27;;;8.80;;
75021;SDS011;63583;49.976;20.182;2023-09-08T09:24:32;11.23;;;8.68;;
75021;SDS011;63583;49.976;20.182;2023-09-08T09:27:00;10.48;;;8.32;;
75021;SDS011;63583;49.976;20.182;2023-09-08T09:29:27;12.07;;;7.95;;
75021;SDS011;63583;49.976;20.182;2023-09-08T09:31:54;12.05;;;8.60;;
75021;SDS011;63583;49.976;20.182;2023-09-08T09:34:21;11.13;;;8.20;;
75021;SDS011;63583;49.976;20.182;2023-09-08T09:36:49;9.60;;;7.35;;
75021;SDS011;63583;49.976;20.182;2023-09-08T09:39:16;10.05;;;7.60;;
75021;SDS011;63583;49.976;20.182;2023-09-08T09:44:10;10.70;;;7.55;;
75021;SDS011;63583;49.976;20.182;2023-09-08T09:46:36;10.73;;;8.27;;
75021;SDS011;63583;49.976;20.182;2023-09-08T09:49:02;11.68;;;7.78;;
75021;SDS011;63583;49.976;20.182;2023-09-08T09:51:28;10.52;;;8.10;;
75021;SDS011;63583;49.976;20.182;2023-09-08T09:53:54;12.93;;;8.30;;
75021;SDS011;63583;49.976;20.182;2023-09-08T09:56:20;11.73;;;8.05;;
75021;SDS011;63583;49.976;20.182;2023-09-08T09:58:48;12.30;;;8.07;;
75021;SDS011;63583;49.976;20.182;2023-09-08T10:01:15;10.93;;;8.40;;
75021;SDS011;63583;49.976;20.182;2023-09-08T10:03:42;11.90;;;8.27;;
75021;SDS011;63583;49.976;20.182;2023-09-08T10:06:08;9.68;;;7.85;;
75021;SDS011;63583;49.976;20.182;2023-09-08T10:08:34;9.23;;;7.40;;
75021;SDS011;63583;49.976;20.182;2023-09-08T10:11:05;9.90;;;6.72;;
75021;SDS011;63583;49.976;20.182;2023-09-08T10:13:33;9.50;;;7.18;;
75021;SDS011;63583;49.976;20.182;2023-09-08T10:16:04;8.85;;;6.60;;
75021;SDS011;63583;49.976;20.182;2023-09-08T10:18:31;9.52;;;6.80;;
75021;SDS011;63583;49.976;20.182;2023-09-08T10:21:00;8.55;;;6.82;;
75021;SDS011;63583;49.976;20.182;2023-09-08T10:23:34;8.57;;;6.68;;
75021;SDS011;63583;49.976;20.182;2023-09-08T10:26:03;11.82;;;7.13;;
75021;SDS011;63583;49.976;20.182;2023-09-08T10:28:33;11.20;;;7.00;;
75021;SDS011;63583;49.976;20.182;2023-09-08T10:30:59;10.82;;;6.30;;
75021;SDS011;63583;49.976;20.182;2023-09-08T10:33:26;7.90;;;5.80;;
75021;SDS011;63583;49.976;20.182;2023-09-08T10:35:52;6.93;;;5.32;;
75021;SDS011;63583;49.976;20.182;2023-09-08T10:38:22;8.10;;;5.57;;
75021;SDS011;63583;49.976;20.182;2023-09-08T10:40:51;7.95;;;5.88;;
75021;SDS011;63583;49.976;20.182;2023-09-08T10:43:18;7.47;;;5.05;;
75021;SDS011;63583;49.976;20.182;2023-09-08T10:45:45;9.30;;;5.57;;
75021;SDS011;63583;49.976;20.182;2023-09-08T10:48:12;7.95;;;5.68;;
75021;SDS011;63583;49.976;20.182;2023-09-08T10:50:40;8.48;;;5.85;;
75021;SDS011;63583;49.976;20.182;2023-09-08T10:53:16;8.57;;;5.88;;
75021;SDS011;63583;49.976;20.182;2023-09-08T10:55:47;8.43;;;5.95;;
75021;SDS011;63583;49.976;20.182;2023-09-08T10:58:58;7.03;;;5.38;;
75021;SDS011;63583;49.976;20.182;2023-09-08T11:01:04;8.05;;;6.03;;
75021;SDS011;63583;49.976;20.182;2023-09-08T11:06:03;9.93;;;5.63;;
75021;SDS011;63583;49.976;20.182;2023-09-08T11:08:29;9.00;;;5.47;;
75021;SDS011;63583;49.976;20.182;2023-09-08T11:10:55;6.95;;;5.65;;
75021;SDS011;63583;49.976;20.182;2023-09-08T11:13:21;6.40;;;4.93;;
75021;SDS011;63583;49.976;20.182;2023-09-08T11:15:50;8.52;;;5.43;;
75021;SDS011;63583;49.976;20.182;2023-09-08T11:18:17;6.70;;;5.43;;
75021;SDS011;63583;49.976;20.182;2023-09-08T11:20:43;8.70;;;5.43;;
75021;SDS011;63583;49.976;20.182;2023-09-08T11:23:10;8.95;;;5.85;;
75021;SDS011;63583;49.976;20.182;2023-09-08T11:25:35;7.82;;;5.57;;
75021;SDS011;63583;49.976;20.182;2023-09-08T11:28:01;7.40;;;5.57;;
75021;SDS011;63583;49.976;20.182;2023-09-08T11:30:27;8.05;;;5.80;;
75021;SDS011;63583;49.976;20.182;2023-09-08T11:32:53;7.57;;;5.50;;
75021;SDS011;63583;49.976;20.182;2023-09-08T11:35:19;9.25;;;5.40;;
75021;SDS011;63583;49.976;20.182;2023-09-08T11:37:46;8.82;;;5.53;;
75021;SDS011;63583;49.976;20.182;2023-09-08T11:40:12;11.15;;;5.25;;
75021;SDS011;63583;49.976;20.182;2023-09-08T11:42:39;7.43;;;5.53;;
75021;SDS011;63583;49.976;20.182;2023-09-08T11:45:12;6.88;;;5.38;;
75021;SDS011;63583;49.976;20.182;2023-09-08T11:47:42;7.47;;;5.20;;
75021;SDS011;63583;49.976;20.182;2023-09-08T11:50:09;8.75;;;5.82;;
75021;SDS011;63583;49.976;20.182;2023-09-08T11:52:37;7.00;;;5.43;;
75021;SDS011;63583;49.976;20.182;2023-09-08T11:55:04;8.95;;;5.55;;
75021;SDS011;63583;49.976;20.182;2023-09-08T11:57:31;6.75;;;5.65;;
75021;SDS011;63583;49.976;20.182;2023-09-08T11:59:58;9.30;;;6.00;;
75021;SDS011;63583;49.976;20.182;2023-09-08T12:02:25;7.75;;;5.35;;
75021;SDS011;63583;49.976;20.182;2023-09-08T12:04:52;6.95;;;5.22;;
75021;SDS011;63583;49.976;20.182;2023-09-08T12:07:19;7.20;;;5.30;;
75021;SDS011;63583;49.976;20.182;2023-09-08T12:09:45;6.53;;;5.18;;
75021;SDS011;63583;49.976;20.182;2023-09-08T12:12:11;5.57;;;4.78;;
75021;SDS011;63583;49.976;20.182;2023-09-08T12:14:41;8.40;;;5.53;;
75021;SDS011;63583;49.976;20.182;2023-09-08T12:17:07;6.95;;;5.20;;
75021;SDS011;63583;49.976;20.182;2023-09-08T12:19:33;9.32;;;5.30;;
75021;SDS011;63583;49.976;20.182;2023-09-08T12:22:03;7.47;;;5.38;;
75021;SDS011;63583;49.976;20.182;2023-09-08T12:24:45;7.88;;;5.32;;
75021;SDS011;63583;49.976;20.182;2023-09-08T12:27:31;6.70;;;4.85;;
75021;SDS011;63583;49.976;20.182;2023-09-08T12:30:01;5.90;;;4.80;;
75021;SDS011;63583;49.976;20.182;2023-09-08T12:32:31;6.47;;;4.68;;
75021;SDS011;63583;49.976;20.182;2023-09-08T12:34:57;8.45;;;4.93;;
75021;SDS011;63583;49.976;20.182;2023-09-08T12:37:24;6.97;;;4.82;;
75021;SDS011;63583;49.976;20.182;2023-09-08T12:39:52;6.72;;;5.15;;
75021;SDS011;63583;49.976;20.182;2023-09-08T12:42:19;8.02;;;5.15;;
75021;SDS011;63583;49.976;20.182;2023-09-08T12:44:45;8.43;;;5.35;;
75021;SDS011;63583;49.976;20.182;2023-09-08T12:47:12;9.93;;;5.93;;
75021;SDS011;63583;49.976;20.182;2023-09-08T12:49:38;9.27;;;4.85;;
75021;SDS011;63583;49.976;20.182;2023-09-08T12:52:05;6.32;;;4.75;;
75021;SDS011;63583;49.976;20.182;2023-09-08T12:54:31;6.38;;;5.13;;
75021;SDS011;63583;49.976;20.182;2023-09-08T12:56:56;6.47;;;5.20;;
75021;SDS011;63583;49.976;20.182;2023-09-08T12:59:22;6.68;;;5.25;;
75021;SDS011;63583;49.976;20.182;2023-09-08T13:01:48;8.63;;;5.32;;
75021;SDS011;63583;49.976;20.182;2023-09-08T13:04:13;7.70;;;5.38;;
75021;SDS011;63583;49.976;20.182;2023-09-08T13:06:39;7.40;;;5.72;;
75021;SDS011;63583;49.976;20.182;2023-09-08T13:09:05;7.63;;;5.05;;
75021;SDS011;63583;49.976;20.182;2023-09-08T13:11:32;9.57;;;5.45;;
75021;SDS011;63583;49.976;20.182;2023-09-08T13:13:58;9.30;;;5.25;;
75021;SDS011;63583;49.976;20.182;2023-09-08T13:16:24;7.72;;;5.78;;
75021;SDS011;63583;49.976;20.182;2023-09-08T13:18:50;9.40;;;5.82;;
75021;SDS011;63583;49.976;20.182;2023-09-08T13:21:16;7.18;;;4.80;;
75021;SDS011;63583;49.976;20.182;2023-09-08T13:23:42;6.60;;;5.10;;
75021;SDS011;63583;49.976;20.182;2023-09-08T13:26:08;7.68;;;5.63;;
75021;SDS011;63583;49.976;20.182;2023-09-08T13:28:33;7.47;;;5.32;;
75021;SDS011;63583;49.976;20.182;2023-09-08T13:30:59;6.28;;;5.13;;
75021;SDS011;63583;49.976;20.182;2023-09-08T13:33:25;7.43;;;5.30;;
75021;SDS011;63583;49.976;20.182;2023-09-08T13:35:51;5.90;;;4.82;;
75021;SDS011;63583;49.976;20.182;2023-09-08T13:38:17;12.40;;;6.72;;
75021;SDS011;63583;49.976;20.182;2023-09-08T13:40:43;24.33;;;15.10;;
75021;SDS011;63583;49.976;20.182;2023-09-08T13:43:09;9.63;;;6.00;;
75021;SDS011;63583;49.976;20.182;2023-09-08T13:45:36;7.70;;;5.60;;
75021;SDS011;63583;49.976;20.182;2023-09-08T13:48:02;9.00;;;5.95;;
75021;SDS011;63583;49.976;20.182;2023-09-08T13:50:30;11.13;;;7.35;;
75021;SDS011;63583;49.976;20.182;2023-09-08T13:52:55;5.93;;;5.32;;
75021;SDS011;63583;49.976;20.182;2023-09-08T13:55:21;7.20;;;5.22;;
75021;SDS011;63583;49.976;20.182;2023-09-08T13:57:52;8.63;;;5.53;;
75021;SDS011;63583;49.976;20.182;2023-09-08T14:00:18;8.45;;;5.40;;
75021;SDS011;63583;49.976;20.182;2023-09-08T14:02:44;6.22;;;4.75;;
75021;SDS011;63583;49.976;20.182;2023-09-08T14:05:10;6.78;;;5.13;;
75021;SDS011;63583;49.976;20.182;2023-09-08T14:07:35;7.35;;;5.38;;
75021;SDS011;63583;49.976;20.182;2023-09-08T14:10:02;8.15;;;5.78;;
75021;SDS011;63583;49.976;20.182;2023-09-08T14:12:32;7.22;;;5.57;;
75021;SDS011;63583;49.976;20.182;2023-09-08T14:14:58;9.98;;;6.35;;
75021;SDS011;63583;49.976;20.182;2023-09-08T14:17:24;7.78;;;5.70;;
75021;SDS011;63583;49.976;20.182;2023-09-08T14:19:50;7.78;;;5.97;;
75021;SDS011;63583;49.976;20.182;2023-09-08T14:22:16;7.90;;;5.45;;
75021;SDS011;63583;49.976;20.182;2023-09-08T14:24:42;7.63;;;5.75;;